createdAt,value
2022-10-23T00:01:50.236Z,59.85
2022-10-23T00:05:50.400Z,59.49
2022-10-23T00:09:50.465Z,60.41
2022-10-23T00:13:51.361Z,60.41
2022-10-23T00:17:54.423Z,60.38
2022-10-23T00:21:54.629Z,60.96
2022-10-23T00:25:54.845Z,61.26
2022-10-23T00:29:55.198Z,60.97
2022-10-23T00:33:58.147Z,61.06
2022-10-23T00:37:58.434Z,61.29
2022-10-23T00:41:59.068Z,61.44
2022-10-23T00:46:00.969Z,61.07
2022-10-23T00:50:03.993Z,60.78
2022-10-23T00:54:23.378Z,60.66
2022-10-23T00:58:24.843Z,60.96
2022-10-23T01:02:25.280Z,61.89
2022-10-23T01:06:40.100Z,61.22
2022-10-23T01:10:48.319Z,60.96
2022-10-23T01:15:03.177Z,61.09
2022-10-23T01:19:15.573Z,61.88
2022-10-23T01:24:10.152Z,62.20
2022-10-23T01:28:23.577Z,63.04
2022-10-23T01:32:34.820Z,63.58
2022-10-23T01:36:37.334Z,63.94
2022-10-23T01:40:50.195Z,64.54
2022-10-23T01:45:01.451Z,65.58
2022-10-23T01:49:15.612Z,66.05
2022-10-23T01:53:16.570Z,66.00
2022-10-23T01:57:22.343Z,65.49
2022-10-23T02:01:30.976Z,66.13
2022-10-23T02:05:33.417Z,64.99
2022-10-23T02:09:36.645Z,65.17
2022-10-23T02:13:46.905Z,64.96
2022-10-23T02:18:07.421Z,65.44
2022-10-23T02:22:15.210Z,64.68
2022-10-23T02:26:23.480Z,65.27
2022-10-23T02:30:24.853Z,65.46
2022-10-23T02:34:41.649Z,65.96
2022-10-23T02:38:46.751Z,65.98
2022-10-23T02:42:57.328Z,66.55
2022-10-23T02:47:13.913Z,66.44
2022-10-23T02:51:23.894Z,66.65
2022-10-23T02:55:45.243Z,66.37
2022-10-23T02:59:50.596Z,65.81
2022-10-23T03:03:57.415Z,65.96
2022-10-23T03:08:00.437Z,65.66
2022-10-23T03:12:00.547Z,66.64
2022-10-23T03:16:00.784Z,66.65
2022-10-23T03:20:01.416Z,66.15
2022-10-23T03:24:04.288Z,65.97
2022-10-23T03:28:10.688Z,66.40
2022-10-23T03:32:10.983Z,65.47
2022-10-23T03:36:12.823Z,65.22
2022-10-23T03:40:16.710Z,64.85
2022-10-23T03:44:17.929Z,65.45
2022-10-23T03:48:18.695Z,66.18
2022-10-23T03:52:18.848Z,64.98
2022-10-23T03:56:21.719Z,64.93
2022-10-23T04:00:22.171Z,64.32
2022-10-23T04:04:22.527Z,64.71
2022-10-23T04:08:22.867Z,65.60
2022-10-23T04:12:29.204Z,65.51
2022-10-23T04:16:29.659Z,65.51
2022-10-23T04:20:29.773Z,64.81
2022-10-23T04:24:33.634Z,64.59
2022-10-23T04:28:37.814Z,64.38
2022-10-23T04:32:38.020Z,64.17
2022-10-23T04:36:38.432Z,65.06
2022-10-23T04:40:42.607Z,65.80
2022-10-23T04:44:45.500Z,65.41
2022-10-23T04:48:46.405Z,64.37
2022-10-23T04:53:01.755Z,65.14
2022-10-23T04:57:08.148Z,65.18
2022-10-23T05:01:29.371Z,64.73
2022-10-23T05:05:30.538Z,64.60
2022-10-23T05:09:38.297Z,64.93
2022-10-23T05:13:58.960Z,65.12
2022-10-23T05:18:13.466Z,64.93
2022-10-23T05:22:16.370Z,64.70
2022-10-23T05:26:23.179Z,65.56
2022-10-23T05:30:26.123Z,66.17
2022-10-23T05:34:32.899Z,64.81
2022-10-23T05:38:37.665Z,64.17
2022-10-23T05:42:45.557Z,64.07
2022-10-23T05:46:49.497Z,64.37
2022-10-23T05:51:23.076Z,64.48
2022-10-23T05:55:34.180Z,63.19
2022-10-23T06:00:00.346Z,64.20
2022-10-23T06:04:02.329Z,64.05
2022-10-23T06:08:25.286Z,64.35
2022-10-23T06:12:27.073Z,63.78
2022-10-23T06:16:28.247Z,64.49
2022-10-23T06:20:28.861Z,63.20
2022-10-23T06:24:40.598Z,62.48
2022-10-23T06:28:45.654Z,61.51
2022-10-23T06:32:46.330Z,62.41
2022-10-23T06:36:48.366Z,62.21
2022-10-23T06:41:14.507Z,62.54
2022-10-23T06:45:16.942Z,62.45
2022-10-23T06:49:35.912Z,62.40
2022-10-23T06:53:38.446Z,61.68
2022-10-23T06:57:48.834Z,61.98
2022-10-23T07:01:49.473Z,61.32
2022-10-23T07:05:50.267Z,60.67
2022-10-23T07:09:50.455Z,61.50
2022-10-23T07:14:00.199Z,61.54
2022-10-23T07:18:00.306Z,60.32
2022-10-23T07:22:13.441Z,59.42
2022-10-23T07:26:27.779Z,59.62
2022-10-23T07:30:30.578Z,60.47
2022-10-23T07:34:33.153Z,59.65
2022-10-23T07:38:56.220Z,60.28
2022-10-23T07:42:56.380Z,60.03
2022-10-23T07:46:59.423Z,59.38
2022-10-23T07:51:03.649Z,59.47
2022-10-23T07:55:04.882Z,58.90
2022-10-23T07:59:07.971Z,59.07
2022-10-23T08:03:12.786Z,58.71
2022-10-23T08:07:13.457Z,58.83
2022-10-23T08:11:24.777Z,58.64
2022-10-23T08:15:25.196Z,57.62
2022-10-23T08:19:33.734Z,57.12
2022-10-23T08:23:35.365Z,56.58
2022-10-23T08:27:35.525Z,55.99
2022-10-23T08:31:37.068Z,55.22
2022-10-23T08:35:55.864Z,55.62
2022-10-23T08:40:02.615Z,55.83
2022-10-23T08:44:45.124Z,55.33
2022-10-23T08:48:54.217Z,55.43
2022-10-23T08:53:32.547Z,56.37
2022-10-23T08:57:43.758Z,56.74
2022-10-23T09:01:49.788Z,55.80
2022-10-23T09:06:10.191Z,55.05
2022-10-23T09:10:42.692Z,54.27
2022-10-23T09:15:07.209Z,53.39
2022-10-23T09:19:17.590Z,52.13
2022-10-23T09:23:22.063Z,50.16
2022-10-23T09:27:25.954Z,49.84
2022-10-23T09:31:26.499Z,48.49
2022-10-23T09:35:29.087Z,48.89
2022-10-23T09:39:34.524Z,50.28
2022-10-23T09:43:37.752Z,49.12
2022-10-23T09:47:39.960Z,49.11
2022-10-23T09:51:59.178Z,50.63
2022-10-23T09:56:04.510Z,50.32
2022-10-23T10:00:21.633Z,50.08
2022-10-23T10:04:22.780Z,49.02
2022-10-23T10:08:38.257Z,49.33
2022-10-23T10:12:58.400Z,48.72
2022-10-23T10:17:09.055Z,46.75
2022-10-23T10:21:21.658Z,45.97
2022-10-23T10:25:30.801Z,45.67
2022-10-23T10:29:53.500Z,45.09
2022-10-23T10:34:13.130Z,44.76
2022-10-23T10:38:38.504Z,46.00
2022-10-23T10:43:07.806Z,45.55
2022-10-23T10:47:25.662Z,43.99
2022-10-23T10:51:38.199Z,43.73
2022-10-23T10:55:44.393Z,44.89
2022-10-23T10:59:53.994Z,44.26
2022-10-23T11:03:59.860Z,42.95
2022-10-23T11:08:09.964Z,42.34
2022-10-23T11:12:16.770Z,42.65
2022-10-23T11:16:24.326Z,41.70
2022-10-23T11:20:54.137Z,41.35
2022-10-23T11:25:43.969Z,40.53
2022-10-23T11:30:15.555Z,39.95
2022-10-23T11:34:52.540Z,40.72
2022-10-23T11:38:59.170Z,40.89
2022-10-23T11:43:01.956Z,39.40
2022-10-23T11:47:08.452Z,38.79
2022-10-23T11:51:28.403Z,38.55
2022-10-23T11:55:31.015Z,37.70
2022-10-23T11:59:37.954Z,37.53
2022-10-23T12:03:55.877Z,36.55
2022-10-23T12:08:02.789Z,36.98
2022-10-23T12:12:29.867Z,38.15
2022-10-23T12:16:41.172Z,37.69
2022-10-23T12:20:50.828Z,36.80
2022-10-23T12:25:06.029Z,36.12
2022-10-23T12:29:21.868Z,36.59
2022-10-23T12:33:37.819Z,37.55
2022-10-23T12:38:04.383Z,39.55
2022-10-23T12:42:05.381Z,38.61
2022-10-23T12:46:20.780Z,37.37
2022-10-23T12:50:28.753Z,37.10
2022-10-23T12:54:29.748Z,36.59
2022-10-23T12:58:33.788Z,36.85
2022-10-23T13:02:37.286Z,38.94
2022-10-23T13:06:42.349Z,39.45
2022-10-23T13:10:43.250Z,39.11
2022-10-23T13:14:57.380Z,39.06
2022-10-23T13:18:57.616Z,38.04
2022-10-23T13:23:13.738Z,39.37
2022-10-23T13:27:29.648Z,39.65
2022-10-23T13:31:35.765Z,39.55
2022-10-23T13:35:37.380Z,40.43
2022-10-23T13:39:40.186Z,40.79
2022-10-23T13:43:40.683Z,40.11
2022-10-23T13:47:41.380Z,41.07
2022-10-23T13:51:47.566Z,43.18
2022-10-23T13:55:57.827Z,44.04
2022-10-23T13:59:58.935Z,44.71
2022-10-23T14:04:03.933Z,43.69
2022-10-23T14:08:04.121Z,43.90
2022-10-23T14:12:07.447Z,44.56
2022-10-23T14:16:08.448Z,45.40
2022-10-23T14:20:10.662Z,46.12
2022-10-23T14:24:11.939Z,46.23
2022-10-23T14:28:14.642Z,45.10
2022-10-23T14:32:15.024Z,45.75
2022-10-23T14:36:15.755Z,45.93
2022-10-23T14:40:16.153Z,46.15
2022-10-23T14:44:18.945Z,45.82
2022-10-23T14:48:19.463Z,46.35
2022-10-23T14:52:19.688Z,46.13
2022-10-23T14:56:19.761Z,45.97
2022-10-23T15:00:22.900Z,45.88
2022-10-23T15:04:24.213Z,47.02
2022-10-23T15:08:25.568Z,46.42
2022-10-23T15:12:26.940Z,46.94
2022-10-23T15:16:30.449Z,47.09
2022-10-23T15:20:30.602Z,46.76
2022-10-23T15:24:30.715Z,45.87
2022-10-23T15:28:32.528Z,46.53
2022-10-23T15:32:35.273Z,47.16
2022-10-23T15:36:35.568Z,47.55
2022-10-23T15:40:35.639Z,48.29
2022-10-23T15:44:37.277Z,48.54
2022-10-23T15:48:40.004Z,49.67
2022-10-23T15:52:40.180Z,49.44
2022-10-23T15:56:40.345Z,50.22
2022-10-23T16:00:40.515Z,50.94
2022-10-23T16:04:43.169Z,51.48
2022-10-23T16:08:43.881Z,51.83
2022-10-23T16:12:44.291Z,52.44
2022-10-23T16:16:44.953Z,52.06
2022-10-23T16:20:47.707Z,52.40
2022-10-23T16:24:47.820Z,52.34
2022-10-23T16:28:49.995Z,52.67
2022-10-23T16:32:50.828Z,52.77
2022-10-23T16:36:54.114Z,52.94
2022-10-23T16:41:04.923Z,52.52
2022-10-23T16:45:25.320Z,52.62
2022-10-23T16:49:25.671Z,52.71
2022-10-23T16:53:30.884Z,53.00
2022-10-23T16:57:31.065Z,53.66
2022-10-23T17:01:34.125Z,52.89
2022-10-23T17:05:37.510Z,53.81
2022-10-23T17:09:40.461Z,53.91
2022-10-23T17:13:45.469Z,53.53
2022-10-23T17:17:45.891Z,53.75
2022-10-23T17:21:47.034Z,53.68
2022-10-23T17:25:49.720Z,53.16
2022-10-23T17:29:49.934Z,53.62
2022-10-23T17:33:52.092Z,53.06
2022-10-23T17:37:52.220Z,53.45
2022-10-23T17:41:56.006Z,53.34
2022-10-23T17:45:56.333Z,54.00
2022-10-23T17:49:56.502Z,54.27
2022-10-23T17:54:02.773Z,54.18
2022-10-23T17:58:05.560Z,54.40
2022-10-23T18:02:05.846Z,54.03
2022-10-23T18:06:10.782Z,54.44
2022-10-23T18:10:14.462Z,53.95
2022-10-23T18:14:17.896Z,54.16
2022-10-23T18:18:17.994Z,54.60
2022-10-23T18:26:22.782Z,53.50
2022-10-23T18:30:25.990Z,55.18
2022-10-23T18:34:28.992Z,53.96
2022-10-23T18:38:32.669Z,54.70
2022-10-23T18:42:34.814Z,55.11
2022-10-23T18:46:38.690Z,54.26
2022-10-23T18:50:40.268Z,54.55
2022-10-23T18:54:40.946Z,53.99
2022-10-23T18:58:41.396Z,54.23
2022-10-23T19:02:45.362Z,54.19
2022-10-23T19:06:48.749Z,53.65
2022-10-23T19:10:50.829Z,53.39
2022-10-23T19:14:52.004Z,53.43
2022-10-23T19:19:01.599Z,53.17
2022-10-23T19:23:05.377Z,53.53
2022-10-23T19:27:06.228Z,52.50
2022-10-23T19:31:07.628Z,52.94
2022-10-23T19:35:12.652Z,52.84
2022-10-23T19:39:12.731Z,53.43
2022-10-23T19:43:12.957Z,53.15
2022-10-23T19:47:13.121Z,52.65
2022-10-23T19:51:16.380Z,53.13
2022-10-23T19:55:16.737Z,52.87
2022-10-23T19:59:17.224Z,52.17
2022-10-23T20:03:18.994Z,53.14
2022-10-23T20:07:25.447Z,52.33
2022-10-23T20:11:28.859Z,51.60
2022-10-23T20:15:29.056Z,52.32
2022-10-23T20:19:29.447Z,52.17
2022-10-23T20:23:32.491Z,52.44
2022-10-23T20:31:56.048Z,51.56
2022-10-23T20:40:00.349Z,52.33
2022-10-23T20:44:00.460Z,52.78
2022-10-23T20:48:01.175Z,53.20
2022-10-23T20:52:02.791Z,52.00
2022-10-23T20:56:08.542Z,51.59
2022-10-23T21:00:11.962Z,52.06
2022-10-23T21:04:15.016Z,52.07
2022-10-23T21:08:15.425Z,51.88
2022-10-23T21:12:18.405Z,53.00
2022-10-23T21:16:24.844Z,53.06
2022-10-23T21:20:27.978Z,53.41
2022-10-23T21:24:28.186Z,53.23
2022-10-23T21:28:31.023Z,52.80
2022-10-23T21:32:31.093Z,52.76
2022-10-23T21:36:34.297Z,53.00
2022-10-23T21:40:40.244Z,52.94
2022-10-23T21:44:43.590Z,53.42
2022-10-23T21:48:44.553Z,53.60
2022-10-23T21:52:45.070Z,53.50
2022-10-23T21:56:48.777Z,53.75
2022-10-23T22:00:51.503Z,54.58
2022-10-23T22:04:51.650Z,54.04
2022-10-23T22:08:52.263Z,53.52
2022-10-23T22:12:52.430Z,54.01
2022-10-23T22:16:56.099Z,53.91
2022-10-23T22:21:02.480Z,53.52
2022-10-23T22:25:02.817Z,54.39
2022-10-23T22:29:06.736Z,54.58
2022-10-23T22:33:09.383Z,54.97
2022-10-23T22:37:09.674Z,55.84
2022-10-23T22:41:11.087Z,55.61
2022-10-23T22:45:12.914Z,56.51
2022-10-23T22:49:15.611Z,56.73
2022-10-23T22:53:16.805Z,57.18
2022-10-23T22:57:17.121Z,56.79
2022-10-23T23:01:21.480Z,57.54
2022-10-23T23:05:24.171Z,57.03
2022-10-23T23:09:24.289Z,58.08
2022-10-23T23:13:24.813Z,58.43
2022-10-23T23:17:24.951Z,58.68
2022-10-23T23:21:28.398Z,58.22
2022-10-23T23:25:28.506Z,58.55
2022-10-23T23:29:29.674Z,58.69
2022-10-23T23:33:30.839Z,59.01
2022-10-23T23:37:33.629Z,59.66
2022-10-23T23:41:33.750Z,60.34
2022-10-23T23:45:34.363Z,60.53
2022-10-23T23:49:34.514Z,59.30
2022-10-23T23:53:37.265Z,59.93
2022-10-23T23:57:37.392Z,60.03
